createdAt,value
2024-03-01T00:00:01.560Z,0.00
2024-03-01T00:01:01.237Z,0.00
2024-03-01T00:02:01.228Z,0.00
2024-03-01T00:03:01.144Z,0.00
2024-03-01T00:04:01.198Z,0.00
2024-03-01T00:05:01.975Z,0.00
2024-03-01T00:06:01.474Z,0.00
2024-03-01T00:07:01.495Z,0.00
2024-03-01T00:08:01.482Z,0.00
2024-03-01T00:09:01.189Z,0.00
2024-03-01T00:10:03.805Z,0.00
2024-03-01T00:11:01.194Z,0.00
2024-03-01T00:12:01.197Z,0.80
2024-03-01T00:13:01.528Z,0.00
2024-03-01T00:14:01.792Z,0.00
2024-03-01T00:15:01.547Z,0.00
2024-03-01T00:16:01.206Z,0.00
2024-03-01T00:17:01.169Z,0.00
2024-03-01T00:18:01.221Z,0.07
2024-03-01T00:19:01.573Z,0.47
2024-03-01T00:20:01.491Z,0.30
2024-03-01T00:21:01.516Z,0.40
2024-03-01T00:22:01.184Z,0.00
2024-03-01T00:23:01.483Z,0.00
2024-03-01T00:24:01.185Z,0.00
2024-03-01T00:25:01.461Z,0.00
2024-03-01T00:26:01.478Z,0.80
2024-03-01T00:27:01.179Z,0.00
2024-03-01T00:28:01.497Z,0.00
2024-03-01T00:29:01.465Z,0.00
2024-03-01T00:30:01.267Z,0.00
2024-03-01T00:31:02.154Z,0.20
2024-03-01T00:32:01.791Z,0.00
2024-03-01T00:33:01.500Z,0.00
2024-03-01T00:34:01.471Z,0.17
2024-03-01T00:35:01.475Z,0.27
2024-03-01T00:36:01.497Z,0.10
2024-03-01T00:37:01.227Z,0.00
2024-03-01T00:38:01.611Z,0.00
2024-03-01T00:39:01.165Z,0.00
2024-03-01T00:40:01.311Z,0.00
2024-03-01T00:41:01.168Z,0.27
2024-03-01T00:42:01.151Z,0.00
2024-03-01T00:43:02.185Z,0.00
2024-03-01T00:44:01.491Z,0.00
2024-03-01T00:45:01.522Z,0.23
2024-03-01T00:46:01.657Z,0.63
2024-03-01T00:47:01.150Z,0.00
2024-03-01T00:48:07.896Z,0.00
2024-03-01T00:49:01.514Z,0.00
2024-03-01T00:50:01.181Z,0.17
2024-03-01T00:51:01.325Z,0.00
2024-03-01T00:52:01.209Z,0.00
2024-03-01T00:53:01.176Z,0.00
2024-03-01T00:54:01.441Z,0.00
2024-03-01T00:55:01.180Z,1.00
2024-03-01T00:56:01.172Z,0.00
2024-03-01T00:57:01.505Z,0.27
2024-03-01T00:58:01.954Z,0.03
2024-03-01T00:59:01.486Z,0.00
2024-03-01T01:00:01.916Z,0.00
2024-03-01T01:01:01.280Z,0.00
2024-03-01T01:02:01.284Z,0.00
2024-03-01T01:03:01.219Z,0.87
2024-03-01T01:04:01.202Z,0.37
2024-03-01T01:05:01.972Z,0.47
2024-03-01T01:06:01.171Z,0.00
2024-03-01T01:07:01.522Z,0.00
2024-03-01T01:08:01.250Z,0.73
2024-03-01T01:09:01.496Z,0.30
2024-03-01T01:10:01.527Z,0.00
2024-03-01T01:11:01.539Z,0.83
2024-03-01T01:12:01.548Z,0.00
2024-03-01T01:13:01.250Z,0.17
2024-03-01T01:14:01.539Z,0.00
2024-03-01T01:15:01.437Z,0.47
2024-03-01T01:16:01.449Z,0.27
2024-03-01T01:17:01.604Z,0.57
2024-03-01T01:18:01.511Z,0.40
2024-03-01T01:19:01.192Z,0.00
2024-03-01T01:20:01.518Z,1.13
2024-03-01T01:21:01.503Z,0.57
2024-03-01T01:22:01.660Z,0.30
2024-03-01T01:23:01.503Z,0.00
2024-03-01T01:24:01.532Z,0.00
2024-03-01T01:25:01.213Z,0.03
2024-03-01T01:26:01.188Z,0.17
2024-03-01T01:27:01.318Z,0.03
2024-03-01T01:28:01.235Z,0.40
2024-03-01T01:29:01.540Z,0.27
2024-03-01T01:30:01.196Z,0.17
2024-03-01T01:31:01.535Z,0.00
2024-03-01T01:32:01.189Z,0.00
2024-03-01T01:33:01.518Z,1.50
2024-03-01T01:34:01.348Z,0.73
2024-03-01T01:35:01.174Z,0.00
2024-03-01T01:36:01.199Z,0.00
2024-03-01T01:37:01.235Z,0.00
2024-03-01T01:38:02.238Z,0.00
2024-03-01T01:39:01.524Z,0.00
2024-03-01T01:40:01.248Z,0.00
2024-03-01T01:41:01.188Z,0.10
2024-03-01T01:42:01.502Z,0.00
2024-03-01T01:43:01.782Z,0.33
2024-03-01T01:44:01.302Z,0.00
2024-03-01T01:45:01.580Z,1.03
2024-03-01T01:46:01.561Z,0.50
2024-03-01T01:47:01.613Z,0.00
2024-03-01T01:48:01.792Z,0.90
2024-03-01T01:49:01.639Z,0.00
2024-03-01T01:50:02.453Z,0.10
2024-03-01T01:51:01.942Z,0.00
2024-03-01T01:52:01.920Z,0.77
2024-03-01T01:53:09.889Z,1.00
2024-03-01T01:54:02.277Z,0.00
2024-03-01T01:55:02.055Z,0.43
2024-03-01T01:56:02.003Z,0.60
2024-03-01T01:57:01.314Z,0.17
2024-03-01T01:58:01.760Z,0.00
2024-03-01T01:59:01.240Z,0.00
2024-03-01T02:00:04.769Z,0.00
2024-03-01T02:01:01.625Z,0.00
2024-03-01T02:02:01.893Z,0.63
2024-03-01T02:03:01.893Z,0.33
2024-03-01T02:04:02.146Z,0.33
2024-03-01T02:05:01.569Z,0.07
2024-03-01T02:06:02.654Z,0.00
2024-03-01T02:07:01.217Z,0.00
2024-03-01T02:08:01.227Z,0.00
2024-03-01T02:09:01.572Z,0.00
2024-03-01T02:10:01.495Z,0.33
2024-03-01T02:11:02.747Z,0.00
2024-03-01T02:12:01.294Z,0.00
2024-03-01T02:13:01.263Z,0.00
2024-03-01T02:14:01.185Z,0.00
2024-03-01T02:15:01.217Z,0.73
2024-03-01T02:16:01.680Z,0.07
2024-03-01T02:17:01.183Z,0.00
2024-03-01T02:18:01.258Z,0.00
2024-03-01T02:19:01.873Z,1.00
2024-03-01T02:20:01.315Z,0.00
2024-03-01T02:21:06.090Z,0.83
2024-03-01T02:22:06.863Z,0.77
2024-03-01T02:23:07.087Z,0.20
2024-03-01T02:24:02.229Z,0.00
2024-03-01T02:25:01.641Z,0.00
2024-03-01T02:26:01.833Z,0.00
2024-03-01T02:27:02.967Z,0.33
2024-03-01T02:28:02.025Z,0.30
2024-03-01T02:29:01.473Z,1.00
2024-03-01T02:30:01.519Z,0.00
2024-03-01T02:31:01.509Z,0.07
2024-03-01T02:32:01.314Z,0.00
2024-03-01T02:33:01.544Z,0.13
2024-03-01T02:34:01.663Z,0.57
2024-03-01T02:35:01.544Z,0.00
2024-03-01T02:36:01.508Z,0.17
2024-03-01T02:37:01.189Z,0.00
2024-03-01T02:38:01.250Z,0.93
2024-03-01T02:39:01.158Z,0.00
2024-03-01T02:40:01.354Z,0.00
2024-03-01T02:41:01.528Z,0.60
2024-03-01T02:42:01.162Z,0.13
2024-03-01T02:43:01.543Z,0.00
2024-03-01T02:44:01.463Z,0.10
2024-03-01T02:45:02.401Z,0.10
2024-03-01T02:46:01.241Z,0.00
2024-03-01T02:47:01.538Z,0.90
2024-03-01T02:48:01.719Z,0.00
2024-03-01T02:49:01.188Z,0.67
2024-03-01T02:50:01.681Z,1.13
2024-03-01T02:51:01.268Z,0.53
2024-03-01T02:52:01.542Z,0.00
2024-03-01T02:53:01.476Z,0.37
2024-03-01T02:54:01.790Z,0.00
2024-03-01T02:55:02.333Z,1.00
2024-03-01T02:56:01.534Z,0.00
2024-03-01T02:57:01.465Z,0.00
2024-03-01T02:58:01.793Z,0.00
2024-03-01T02:59:01.176Z,0.00
2024-03-01T03:00:01.171Z,0.00
2024-03-01T03:01:01.341Z,1.00
2024-03-01T03:02:01.223Z,0.00
2024-03-01T03:03:01.163Z,0.00
2024-03-01T03:04:01.579Z,0.13
2024-03-01T03:05:01.451Z,0.37
2024-03-01T03:06:01.601Z,0.00
2024-03-01T03:07:05.950Z,0.27
2024-03-01T03:08:01.249Z,0.00
2024-03-01T03:09:01.481Z,0.00
2024-03-01T03:10:01.623Z,0.00
2024-03-01T03:11:01.244Z,0.00
2024-03-01T03:12:01.170Z,0.63
2024-03-01T03:13:01.237Z,1.00
2024-03-01T03:14:01.195Z,0.93
2024-03-01T03:15:01.509Z,0.80
2024-03-01T03:16:01.327Z,0.90
2024-03-01T03:17:02.429Z,0.67
2024-03-01T03:18:01.628Z,0.57
2024-03-01T03:19:01.205Z,0.60
2024-03-01T03:20:01.874Z,0.00
2024-03-01T03:21:01.139Z,1.00
2024-03-01T03:22:01.226Z,0.50
2024-03-01T03:23:02.274Z,1.00
2024-03-01T03:24:01.593Z,1.13
2024-03-01T03:25:02.463Z,0.57
2024-03-01T03:26:01.183Z,0.47
2024-03-01T03:27:01.616Z,1.13
2024-03-01T03:28:03.832Z,0.00
2024-03-01T03:29:01.196Z,0.97
2024-03-01T03:30:01.576Z,0.60
2024-03-01T03:31:01.579Z,0.27
2024-03-01T03:32:01.863Z,0.47
2024-03-01T03:33:01.210Z,0.03
2024-03-01T03:34:01.541Z,0.97
2024-03-01T03:35:01.182Z,1.00
2024-03-01T03:36:01.255Z,1.00
2024-03-01T03:37:01.260Z,0.17
2024-03-01T03:38:01.162Z,0.80
2024-03-01T03:39:01.713Z,0.80
2024-03-01T03:40:02.219Z,0.30
2024-03-01T03:41:01.500Z,0.20
2024-03-01T03:42:01.159Z,0.23
2024-03-01T03:43:01.212Z,0.70
2024-03-01T03:44:01.621Z,1.47
2024-03-01T03:45:01.237Z,0.97
2024-03-01T03:46:01.206Z,0.77
2024-03-01T03:47:01.519Z,0.00
2024-03-01T03:48:01.177Z,1.00
2024-03-01T03:49:01.225Z,0.83
2024-03-01T03:50:02.839Z,0.30
2024-03-01T03:51:01.158Z,0.33
2024-03-01T03:52:01.512Z,0.83
2024-03-01T03:53:01.193Z,0.87
2024-03-01T03:54:01.156Z,0.23
2024-03-01T03:55:02.025Z,0.93
2024-03-01T03:56:01.175Z,0.00
2024-03-01T03:57:01.175Z,0.13
2024-03-01T03:58:01.211Z,1.00
2024-03-01T03:59:01.543Z,0.00
2024-03-01T04:00:01.736Z,0.20
2024-03-01T04:01:01.354Z,0.13
2024-03-01T04:02:01.622Z,0.97
2024-03-01T04:03:01.466Z,0.37
2024-03-01T04:04:02.135Z,0.83
2024-03-01T04:05:01.530Z,1.00
2024-03-01T04:06:01.157Z,0.00
2024-03-01T04:07:01.212Z,0.00
2024-03-01T04:08:01.168Z,0.37
2024-03-01T04:09:01.159Z,0.27
2024-03-01T04:10:01.599Z,0.73
2024-03-01T04:11:01.190Z,0.03
2024-03-01T04:12:03.869Z,0.33
2024-03-01T04:13:01.227Z,0.07
2024-03-01T04:14:01.510Z,0.30
2024-03-01T04:15:04.846Z,1.00
2024-03-01T04:16:01.196Z,0.10
2024-03-01T04:17:01.475Z,0.30
2024-03-01T04:18:01.160Z,0.80
2024-03-01T04:19:01.188Z,0.07
2024-03-01T04:20:03.542Z,0.03
2024-03-01T04:21:01.705Z,0.00
2024-03-01T04:22:01.227Z,2.93
2024-03-01T04:23:01.332Z,18.23
2024-03-01T04:24:01.893Z,11.77
2024-03-01T04:25:01.664Z,32.40
2024-03-01T04:26:01.608Z,59.33
2024-03-01T04:27:01.522Z,37.83
2024-03-01T04:28:01.618Z,41.17
2024-03-01T04:29:01.279Z,86.93
2024-03-01T04:30:01.151Z,16.37
2024-03-01T04:31:01.165Z,1.10
2024-03-01T04:32:01.483Z,0.30
2024-03-01T04:33:01.175Z,0.90
2024-03-01T04:34:02.787Z,1.00
2024-03-01T04:35:01.642Z,1.20
2024-03-01T04:36:02.629Z,0.30
2024-03-01T04:37:01.590Z,0.97
2024-03-01T04:38:01.495Z,0.47
2024-03-01T04:39:01.458Z,0.63
2024-03-01T04:40:01.187Z,0.50
2024-03-01T04:41:01.206Z,0.27
2024-03-01T04:42:01.464Z,0.97
2024-03-01T04:43:02.113Z,0.47
2024-03-01T04:44:01.152Z,0.87
2024-03-01T04:45:02.213Z,0.07
2024-03-01T04:46:02.249Z,0.30
2024-03-01T04:47:01.162Z,0.13
2024-03-01T04:48:01.498Z,1.00
2024-03-01T04:49:01.471Z,0.47
2024-03-01T04:50:02.071Z,0.53
2024-03-01T04:51:01.168Z,0.97
2024-03-01T04:52:01.218Z,0.00
2024-03-01T04:53:01.154Z,0.47
2024-03-01T04:54:01.505Z,0.07
2024-03-01T04:55:01.199Z,0.53
2024-03-01T04:56:01.395Z,0.90
2024-03-01T04:57:01.575Z,0.33
2024-03-01T04:58:01.475Z,0.60
2024-03-01T04:59:01.160Z,0.00
2024-03-01T05:00:01.611Z,0.80
2024-03-01T05:01:01.318Z,0.70
2024-03-01T05:02:01.200Z,0.63
2024-03-01T05:03:01.155Z,0.63
2024-03-01T05:04:01.473Z,0.37
2024-03-01T05:05:01.197Z,0.43
2024-03-01T05:06:01.461Z,0.00
2024-03-01T05:07:02.293Z,0.77
2024-03-01T05:08:01.197Z,0.27
2024-03-01T05:09:01.165Z,0.00
2024-03-01T05:10:01.788Z,0.80
2024-03-01T05:11:01.636Z,0.13
2024-03-01T05:12:01.498Z,0.57
2024-03-01T05:13:01.513Z,0.00
2024-03-01T05:14:01.468Z,0.77
2024-03-01T05:15:03.594Z,0.30
2024-03-01T05:16:01.166Z,0.73
2024-03-01T05:17:01.160Z,0.43
2024-03-01T05:18:01.834Z,0.00
2024-03-01T05:19:01.625Z,0.00
2024-03-01T05:20:02.332Z,0.13
2024-03-01T05:21:01.474Z,0.03
2024-03-01T05:22:01.494Z,0.00
2024-03-01T05:23:01.180Z,0.00
2024-03-01T05:24:01.188Z,0.63
2024-03-01T05:25:01.197Z,0.23
2024-03-01T05:26:01.203Z,0.13
2024-03-01T05:27:01.157Z,0.23
2024-03-01T05:28:01.217Z,0.10
2024-03-01T05:29:01.575Z,0.20
2024-03-01T05:30:01.458Z,0.00
2024-03-01T05:31:08.208Z,0.00
2024-03-01T05:32:01.182Z,0.00
2024-03-01T05:33:01.861Z,0.00
2024-03-01T05:34:01.192Z,0.23
2024-03-01T05:35:01.167Z,0.37
2024-03-01T05:36:01.499Z,0.00
2024-03-01T05:37:01.691Z,0.57
2024-03-01T05:38:01.207Z,0.00
2024-03-01T05:39:01.185Z,0.00
2024-03-01T05:40:03.602Z,0.63
2024-03-01T05:41:01.682Z,1.00
2024-03-01T05:42:01.180Z,0.00
2024-03-01T05:43:01.173Z,0.30
2024-03-01T05:44:01.152Z,0.47
2024-03-01T05:45:01.144Z,0.67
2024-03-01T05:46:12.193Z,0.67
2024-03-01T05:47:01.165Z,0.00
2024-03-01T05:48:01.202Z,1.00
2024-03-01T05:49:01.633Z,0.43
2024-03-01T05:50:02.642Z,0.10
2024-03-01T05:51:01.372Z,0.10
2024-03-01T05:52:01.230Z,0.00
2024-03-01T05:53:01.146Z,1.00
2024-03-01T05:54:01.933Z,0.73
2024-03-01T05:55:02.281Z,0.00
2024-03-01T05:56:01.172Z,0.30
2024-03-01T05:57:01.195Z,0.00
2024-03-01T05:58:01.209Z,0.80
2024-03-01T05:59:01.161Z,0.50
2024-03-01T06:00:02.597Z,0.00
2024-03-01T06:01:01.569Z,0.00
2024-03-01T06:02:02.454Z,1.47
2024-03-01T06:03:01.444Z,0.00
2024-03-01T06:04:01.270Z,0.43
2024-03-01T06:05:01.144Z,0.03
2024-03-01T06:06:01.499Z,0.60
2024-03-01T06:07:01.199Z,0.00
2024-03-01T06:08:01.169Z,0.87
2024-03-01T06:09:01.544Z,0.00
2024-03-01T06:10:01.507Z,0.47
2024-03-01T06:11:01.616Z,0.37
2024-03-01T06:12:01.508Z,0.70
2024-03-01T06:13:01.722Z,0.70
2024-03-01T06:14:01.466Z,0.80
2024-03-01T06:15:01.638Z,0.00
2024-03-01T06:16:01.179Z,0.73
2024-03-01T06:17:01.155Z,0.87
2024-03-01T06:18:01.531Z,0.93
2024-03-01T06:19:01.831Z,0.97
2024-03-01T06:20:02.635Z,0.07
2024-03-01T06:21:01.522Z,0.27
2024-03-01T06:22:01.200Z,0.03
2024-03-01T06:23:01.151Z,0.30
2024-03-01T06:24:01.312Z,0.00
2024-03-01T06:25:01.176Z,0.00
2024-03-01T06:26:01.445Z,0.00
2024-03-01T06:27:01.156Z,0.07
2024-03-01T06:28:01.172Z,0.43
2024-03-01T06:29:01.657Z,0.17
2024-03-01T06:30:01.479Z,0.70
2024-03-01T06:31:01.161Z,0.00
2024-03-01T06:32:01.545Z,0.20
2024-03-01T06:33:01.535Z,0.33
2024-03-01T06:34:01.496Z,0.90
2024-03-01T06:35:01.506Z,0.00
2024-03-01T06:36:02.476Z,0.57
2024-03-01T06:37:01.189Z,0.03
2024-03-01T06:38:01.181Z,0.63
2024-03-01T06:39:01.676Z,0.93
2024-03-01T06:40:01.388Z,0.00
2024-03-01T06:41:01.188Z,0.27
2024-03-01T06:42:01.181Z,0.57
2024-03-01T06:43:01.526Z,0.73
2024-03-01T06:44:01.208Z,0.33
2024-03-01T06:45:01.552Z,0.13
2024-03-01T06:46:03.187Z,0.00
2024-03-01T06:47:01.237Z,0.87
2024-03-01T06:48:01.566Z,0.40
2024-03-01T06:49:01.756Z,0.37
2024-03-01T06:50:01.671Z,0.00
2024-03-01T06:51:01.181Z,0.47
2024-03-01T06:52:01.210Z,0.00
2024-03-01T06:53:01.175Z,0.00
2024-03-01T06:54:01.166Z,0.23
2024-03-01T06:55:01.502Z,0.00
2024-03-01T06:56:01.671Z,0.93
2024-03-01T06:57:01.605Z,0.63
2024-03-01T06:58:01.163Z,0.33
2024-03-01T06:59:01.157Z,0.40
2024-03-01T07:00:03.818Z,0.13
2024-03-01T07:01:01.217Z,0.53
2024-03-01T07:02:01.687Z,0.00
2024-03-01T07:03:01.530Z,0.20
2024-03-01T07:04:01.181Z,0.00
2024-03-01T07:05:01.481Z,0.00
2024-03-01T07:06:01.469Z,0.93
2024-03-01T07:07:01.917Z,0.13
2024-03-01T07:08:02.297Z,0.00
2024-03-01T07:09:01.457Z,0.87
2024-03-01T07:10:01.495Z,0.00
2024-03-01T07:11:01.492Z,0.10
2024-03-01T07:12:01.491Z,0.00
2024-03-01T07:13:01.551Z,0.00
2024-03-01T07:14:01.163Z,0.87
2024-03-01T07:15:01.170Z,0.00
2024-03-01T07:16:01.184Z,0.93
2024-03-01T07:17:01.500Z,0.00
2024-03-01T07:18:01.514Z,0.00
2024-03-01T07:19:02.790Z,0.43
2024-03-01T07:20:01.154Z,0.33
2024-03-01T07:21:01.459Z,0.43
2024-03-01T07:22:01.485Z,0.87
2024-03-01T07:23:01.460Z,1.00
2024-03-01T07:24:01.491Z,0.37
2024-03-01T07:25:01.551Z,0.63
2024-03-01T07:26:03.588Z,0.73
2024-03-01T07:27:01.154Z,0.77
2024-03-01T07:28:01.504Z,1.80
2024-03-01T07:29:01.816Z,0.13
2024-03-01T07:30:01.781Z,0.83
2024-03-01T07:31:01.367Z,0.00
2024-03-01T07:32:03.567Z,0.87
2024-03-01T07:33:01.180Z,0.27
2024-03-01T07:34:01.504Z,0.10
2024-03-01T07:35:02.059Z,0.07
2024-03-01T07:36:02.077Z,1.13
2024-03-01T07:37:01.527Z,0.83
2024-03-01T07:38:01.155Z,1.00
2024-03-01T07:39:01.164Z,0.87
2024-03-01T07:40:01.490Z,0.43
2024-03-01T07:41:02.393Z,1.27
2024-03-01T07:42:01.140Z,1.00
2024-03-01T07:43:01.180Z,1.07
2024-03-01T07:44:01.177Z,1.67
2024-03-01T07:45:01.485Z,0.73
2024-03-01T07:46:01.210Z,0.43
2024-03-01T07:47:02.375Z,0.67
2024-03-01T07:48:01.888Z,0.17
2024-03-01T07:49:01.244Z,1.00
2024-03-01T07:50:01.156Z,0.00
2024-03-01T07:51:01.545Z,0.83
2024-03-01T07:52:02.653Z,0.20
2024-03-01T07:53:01.470Z,1.03
2024-03-01T07:54:02.109Z,0.47
2024-03-01T07:55:01.549Z,0.00
2024-03-01T07:56:01.616Z,0.47
2024-03-01T07:57:01.159Z,0.23
2024-03-01T07:58:01.187Z,0.33
2024-03-01T07:59:03.071Z,0.90
2024-03-01T08:00:01.176Z,0.17
2024-03-01T08:01:01.978Z,0.77
2024-03-01T08:02:01.551Z,0.00
2024-03-01T08:03:06.506Z,0.43
2024-03-01T08:04:04.248Z,0.77
2024-03-01T08:05:01.175Z,0.23
2024-03-01T08:06:01.407Z,0.20
2024-03-01T08:07:01.518Z,0.23
2024-03-01T08:08:01.589Z,0.70
2024-03-01T08:09:01.468Z,0.90
2024-03-01T08:10:01.511Z,0.07
2024-03-01T08:11:01.266Z,0.23
2024-03-01T08:12:01.221Z,0.00
2024-03-01T08:13:02.021Z,1.00
2024-03-01T08:14:05.650Z,0.63
2024-03-01T08:15:07.819Z,1.20
2024-03-01T08:16:03.043Z,0.37
2024-03-01T08:17:01.929Z,0.03
2024-03-01T08:18:15.357Z,0.00
2024-03-01T08:19:01.215Z,0.73
2024-03-01T08:20:10.514Z,0.83
2024-03-01T08:21:02.446Z,0.60
2024-03-01T08:22:06.540Z,0.00
2024-03-01T08:23:01.173Z,0.50
2024-03-01T08:24:01.473Z,0.27
2024-03-01T08:25:01.418Z,0.00
2024-03-01T08:26:01.184Z,0.63
2024-03-01T08:27:01.954Z,0.23
2024-03-01T08:28:01.188Z,0.10
2024-03-01T08:29:01.613Z,0.07
2024-03-01T08:30:01.756Z,0.03
2024-03-01T08:31:01.260Z,0.73
2024-03-01T08:32:05.630Z,1.00
2024-03-01T08:33:01.278Z,1.10
2024-03-01T08:34:08.628Z,0.63
2024-03-01T08:35:01.842Z,0.27
2024-03-01T08:36:02.699Z,0.47
2024-03-01T08:37:01.199Z,0.50
2024-03-01T08:38:01.653Z,0.43
2024-03-01T08:39:09.726Z,0.87
2024-03-01T08:40:01.666Z,0.80
2024-03-01T08:41:01.197Z,0.67
2024-03-01T08:42:02.095Z,0.40
2024-03-01T08:43:01.267Z,1.53
2024-03-01T08:44:01.653Z,0.70
2024-03-01T08:45:01.433Z,0.33
2024-03-01T08:46:03.257Z,1.00
2024-03-01T08:47:02.308Z,0.00
2024-03-01T08:48:12.443Z,0.37
2024-03-01T08:49:12.225Z,0.30
2024-03-01T08:50:22.218Z,0.87
2024-03-01T08:51:01.634Z,0.10
2024-03-01T08:52:01.262Z,0.87
2024-03-01T08:53:01.439Z,0.00
2024-03-01T08:54:02.923Z,0.23
2024-03-01T08:55:22.238Z,0.17
2024-03-01T08:56:01.153Z,1.10
2024-03-01T08:57:06.360Z,1.00
2024-03-01T08:58:02.451Z,1.00
2024-03-01T08:59:06.315Z,0.90
2024-03-01T09:00:01.465Z,0.80
2024-03-01T09:01:02.513Z,1.10
2024-03-01T09:02:01.548Z,0.90
2024-03-01T09:03:01.533Z,1.00
2024-03-01T09:04:11.461Z,0.57
2024-03-01T09:05:01.163Z,1.00
2024-03-01T09:06:05.426Z,0.00
2024-03-01T09:07:08.497Z,0.00
2024-03-01T09:08:01.487Z,0.47
2024-03-01T09:09:01.311Z,0.43
2024-03-01T09:10:01.568Z,0.67
2024-03-01T09:11:02.092Z,0.77
2024-03-01T09:12:01.516Z,0.00
2024-03-01T09:13:01.987Z,0.57
2024-03-01T09:14:02.689Z,1.47
2024-03-01T09:15:03.097Z,0.00
2024-03-01T09:16:01.660Z,0.97
2024-03-01T09:17:02.145Z,1.40
2024-03-01T09:18:02.068Z,0.60
2024-03-01T09:19:01.490Z,0.43
2024-03-01T09:20:05.460Z,0.07
2024-03-01T09:21:01.223Z,0.97
2024-03-01T09:22:01.467Z,0.00
2024-03-01T09:23:03.861Z,0.00
2024-03-01T09:24:01.334Z,0.13
2024-03-01T09:25:06.878Z,0.53
2024-03-01T09:26:05.825Z,0.80
2024-03-01T09:27:01.319Z,0.63
2024-03-01T09:28:01.197Z,0.80
2024-03-01T09:29:03.359Z,0.57
2024-03-01T09:30:10.175Z,1.57
2024-03-01T09:31:04.175Z,0.00
2024-03-01T09:32:02.183Z,0.00
2024-03-01T09:33:02.217Z,0.00
2024-03-01T09:34:05.971Z,0.00
2024-03-01T09:35:03.404Z,0.70
2024-03-01T09:36:02.968Z,0.37
2024-03-01T09:37:03.151Z,0.87
2024-03-01T09:38:01.919Z,0.27
2024-03-01T09:39:01.707Z,0.47
2024-03-01T09:40:04.427Z,1.13
2024-03-01T09:41:21.657Z,0.00
2024-03-01T09:42:21.908Z,0.20
2024-03-01T09:43:10.196Z,0.97
2024-03-01T09:44:13.088Z,0.47
2024-03-01T09:45:09.381Z,3.57
2024-03-01T09:46:04.139Z,2.13
2024-03-01T09:47:16.197Z,1.10
2024-03-01T09:48:12.028Z,2.20
2024-03-01T09:49:11.174Z,0.93
2024-03-01T09:50:18.724Z,0.43
2024-03-01T09:51:19.346Z,1.03
2024-03-01T09:52:15.769Z,0.00
2024-03-01T09:53:14.428Z,0.63
2024-03-01T09:54:16.720Z,0.00
2024-03-01T09:55:09.356Z,0.90
2024-03-01T09:56:10.047Z,0.60
2024-03-01T09:57:09.705Z,0.87
2024-03-01T09:58:09.273Z,0.43
2024-03-01T09:59:12.691Z,1.00
2024-03-01T10:00:09.038Z,0.10
2024-03-01T10:01:09.064Z,0.70
2024-03-01T10:02:11.398Z,1.27
2024-03-01T10:03:13.769Z,0.20
2024-03-01T10:04:13.268Z,0.00
2024-03-01T10:05:23.534Z,0.47
2024-03-01T10:06:22.226Z,1.53
2024-03-01T10:07:08.437Z,0.73
2024-03-01T10:08:08.700Z,1.20
2024-03-01T10:09:06.608Z,0.57
2024-03-01T10:10:20.874Z,1.00
2024-03-01T10:11:19.548Z,1.00
2024-03-01T10:12:14.298Z,0.23
2024-03-01T10:13:08.601Z,1.00
2024-03-01T10:14:15.080Z,0.73
2024-03-01T10:15:02.979Z,1.00
2024-03-01T10:16:15.172Z,0.17
2024-03-01T10:17:11.044Z,0.80
2024-03-01T10:18:19.670Z,0.83
2024-03-01T10:19:11.058Z,0.80
2024-03-01T10:20:16.216Z,0.00
2024-03-01T10:21:12.482Z,0.87
2024-03-01T10:22:09.561Z,1.00
2024-03-01T10:23:14.661Z,0.43
2024-03-01T10:24:12.431Z,0.00
2024-03-01T10:25:18.369Z,3.27
2024-03-01T10:26:06.722Z,15.30
2024-03-01T10:27:13.203Z,6.47
2024-03-01T10:28:13.589Z,1.33
2024-03-01T10:29:15.664Z,0.43
2024-03-01T10:30:09.253Z,0.90
2024-03-01T10:31:10.741Z,0.03
2024-03-01T10:32:11.546Z,0.07
2024-03-01T10:33:20.582Z,1.00
2024-03-01T10:34:08.985Z,1.00
2024-03-01T10:35:06.401Z,0.00
2024-03-01T10:36:15.037Z,0.97
2024-03-01T10:37:12.399Z,1.63
2024-03-01T10:38:12.290Z,0.10
2024-03-01T10:39:05.721Z,1.10
2024-03-01T10:40:06.813Z,1.00
2024-03-01T10:41:19.143Z,0.00
2024-03-01T10:42:10.427Z,1.83
2024-03-01T10:43:10.520Z,1.03
2024-03-01T10:44:12.405Z,1.63
2024-03-01T10:45:05.746Z,1.23
2024-03-01T10:46:09.260Z,1.03
2024-03-01T10:48:01.337Z,0.67
2024-03-01T10:49:06.761Z,0.80
2024-03-01T10:50:10.946Z,0.43
2024-03-01T10:51:05.611Z,0.73
2024-03-01T10:52:08.958Z,1.13
2024-03-01T10:53:07.725Z,1.00
2024-03-01T10:54:07.432Z,0.77
2024-03-01T10:55:03.254Z,0.40
2024-03-01T10:56:05.223Z,1.63
2024-03-01T10:57:03.677Z,0.60
2024-03-01T10:58:06.865Z,0.83
2024-03-01T10:59:05.860Z,1.00
2024-03-01T11:00:04.562Z,0.63
2024-03-01T11:01:10.351Z,1.20
2024-03-01T11:02:07.687Z,0.43
2024-03-01T11:03:10.728Z,0.27
2024-03-01T11:04:10.013Z,1.90
2024-03-01T11:05:07.033Z,0.73
2024-03-01T11:06:16.609Z,1.00
2024-03-01T11:07:14.421Z,0.77
2024-03-01T11:08:15.633Z,0.03
2024-03-01T11:09:10.224Z,0.00
2024-03-01T11:10:05.281Z,1.33
2024-03-01T11:11:08.504Z,1.47
2024-03-01T11:12:11.748Z,1.07
2024-03-01T11:13:05.561Z,0.73
2024-03-01T11:14:05.222Z,1.17
2024-03-01T11:15:09.494Z,0.40
2024-03-01T11:16:04.594Z,1.00
2024-03-01T11:17:02.100Z,0.90
2024-03-01T11:18:05.265Z,1.10
2024-03-01T11:19:06.843Z,1.10
2024-03-01T11:20:05.632Z,1.53
2024-03-01T11:21:04.703Z,1.50
2024-03-01T11:22:16.057Z,1.10
2024-03-01T11:23:10.775Z,1.00
2024-03-01T11:24:04.411Z,1.20
2024-03-01T11:25:07.505Z,1.53
2024-03-01T11:26:07.931Z,0.43
2024-03-01T11:27:04.517Z,1.87
2024-03-01T11:28:03.499Z,1.67
2024-03-01T11:29:03.867Z,0.50
2024-03-01T11:30:06.275Z,0.80
2024-03-01T11:31:07.007Z,1.00
2024-03-01T11:32:10.579Z,0.27
2024-03-01T11:33:03.686Z,1.00
2024-03-01T11:34:12.736Z,0.83
2024-03-01T11:35:09.388Z,0.83
2024-03-01T11:36:20.226Z,1.00
2024-03-01T11:37:13.485Z,0.90
2024-03-01T11:38:15.143Z,1.17
2024-03-01T11:39:19.263Z,0.70
2024-03-01T11:40:07.846Z,0.80
2024-03-01T11:41:19.643Z,1.30
2024-03-01T11:42:10.066Z,0.53
2024-03-01T11:43:12.351Z,1.67
2024-03-01T11:44:10.428Z,1.87
2024-03-01T11:45:06.527Z,0.80
2024-03-01T11:46:18.036Z,0.83
2024-03-01T11:47:06.315Z,1.00
2024-03-01T11:48:21.008Z,1.00
2024-03-01T11:49:18.719Z,0.53
2024-03-01T11:50:19.718Z,0.80
2024-03-01T11:51:17.778Z,0.70
2024-03-01T11:52:16.582Z,0.90
2024-03-01T11:53:18.205Z,0.87
2024-03-01T11:54:22.226Z,0.93
2024-03-01T11:55:17.562Z,1.00
2024-03-01T11:56:21.359Z,1.30
2024-03-01T11:57:14.730Z,1.30
2024-03-01T11:58:12.915Z,0.80
2024-03-01T11:59:10.302Z,1.00
2024-03-01T12:00:09.627Z,2.87
2024-03-01T12:01:12.426Z,1.00
2024-03-01T12:02:14.854Z,1.03
2024-03-01T12:03:20.343Z,1.00
2024-03-01T12:04:20.132Z,1.10
2024-03-01T12:05:10.540Z,1.93
2024-03-01T12:06:10.981Z,1.63
2024-03-01T12:07:09.814Z,0.57
2024-03-01T12:08:16.420Z,1.33
2024-03-01T12:09:09.040Z,1.00
2024-03-01T12:10:14.592Z,1.57
2024-03-01T12:11:11.623Z,1.90
2024-03-01T12:12:13.995Z,1.00
2024-03-01T12:13:07.424Z,0.90
2024-03-01T12:14:04.758Z,0.63
2024-03-01T12:15:05.276Z,0.00
2024-03-01T12:16:07.757Z,1.93
2024-03-01T12:17:11.819Z,1.00
2024-03-01T12:18:18.806Z,1.83
2024-03-01T12:19:10.452Z,2.10
2024-03-01T12:20:03.926Z,0.23
2024-03-01T12:21:16.977Z,0.67
2024-03-01T12:22:15.674Z,1.47
2024-03-01T12:23:15.257Z,0.43
2024-03-01T12:24:15.445Z,0.33
2024-03-01T12:25:03.131Z,0.03
2024-03-01T12:26:05.094Z,1.00
2024-03-01T12:27:10.721Z,0.27
2024-03-01T12:28:11.989Z,0.63
2024-03-01T12:29:13.818Z,0.90
2024-03-01T12:30:10.200Z,0.33
2024-03-01T12:31:06.985Z,0.60
2024-03-01T12:32:12.788Z,0.23
2024-03-01T12:33:18.066Z,0.00
2024-03-01T12:34:13.470Z,1.33
2024-03-01T12:35:18.597Z,0.40
2024-03-01T12:36:07.519Z,0.93
2024-03-01T12:37:13.239Z,0.00
2024-03-01T12:38:15.231Z,0.00
2024-03-01T12:39:05.466Z,0.00
2024-03-01T12:40:10.356Z,1.67
2024-03-01T12:41:19.448Z,1.50
2024-03-01T12:42:08.970Z,1.33
2024-03-01T12:43:18.351Z,2.03
2024-03-01T12:44:12.286Z,1.33
2024-03-01T12:45:13.101Z,1.13
2024-03-01T12:46:19.271Z,1.83
2024-03-01T12:47:22.199Z,1.63
2024-03-01T12:48:10.878Z,1.37
2024-03-01T12:49:11.009Z,1.70
2024-03-01T12:50:16.739Z,1.10
2024-03-01T12:51:11.617Z,1.00
2024-03-01T12:52:11.393Z,0.23
2024-03-01T12:53:22.214Z,1.10
2024-03-01T12:54:02.240Z,0.93
2024-03-01T12:55:07.636Z,1.67
2024-03-01T12:56:14.026Z,1.00
2024-03-01T12:57:11.285Z,1.27
2024-03-01T12:58:08.395Z,1.00
2024-03-01T12:59:21.098Z,0.70
2024-03-01T13:00:04.236Z,1.67
2024-03-01T13:01:09.336Z,1.37
2024-03-01T13:02:21.174Z,0.37
2024-03-01T13:03:14.316Z,0.80
2024-03-01T13:04:13.991Z,1.50
2024-03-01T13:05:08.925Z,0.00
2024-03-01T13:06:02.023Z,2.53
2024-03-01T13:07:03.233Z,0.50
2024-03-01T13:08:02.347Z,1.00
2024-03-01T13:09:05.722Z,1.33
2024-03-01T13:10:02.477Z,1.00
2024-03-01T13:11:06.139Z,0.83
2024-03-01T13:12:07.376Z,1.23
2024-03-01T13:13:11.226Z,1.27
2024-03-01T13:14:11.575Z,1.00
2024-03-01T13:15:13.608Z,1.97
2024-03-01T13:16:06.190Z,1.00
2024-03-01T13:17:24.991Z,1.30
2024-03-01T13:18:05.874Z,1.03
2024-03-01T13:19:09.665Z,0.53